Terminal Aerodrome Forecast
Issued by NWS

Home | Current Version | Previous Version | Text Only | Print | Product List | Glossary On
Versions: 1 2 3 4 5 6 7 8 9 10 11 12 13 14 15 16 17 18 19 20 21
028
FTUS43 KICT 212334
TAFHUT
TAF
KHUT 212334Z 2200/2224 03015KT P6SM OVC070
     FM220100 05010KT P6SM -SNPL OVC020
     FM220300 05009KT 4SM -FZRAPL OVC008
      TEMPO 2203/2206 2SM TSPL OVC012CB
     FM220600 04008KT 4SM -FZRAPL OVC008
     FM221200 05007KT 3SM -FZDZ BR OVC005
     FM221600 08005KT P6SM OVC012=

USA.gov is the U.S. government's official web portal to all federal, state and local government web resources and services.